sensor_id;sensor_type;location;lat;lon;timestamp;pressure;altitude;pressure_sealevel;temperature;humidity
17785;BME280;9016;53.582;10.062;2023-09-12T00:01:18;101125.25;;;23.30;82.66
17785;BME280;9016;53.582;10.062;2023-09-12T00:03:46;101126.13;;;23.31;83.27
17785;BME280;9016;53.582;10.062;2023-09-12T00:06:14;101128.25;;;23.19;84.00
17785;BME280;9016;53.582;10.062;2023-09-12T00:08:42;101142.66;;;23.12;84.94
17785;BME280;9016;53.582;10.062;2023-09-12T00:11:10;101143.34;;;23.14;85.39
17785;BME280;9016;53.582;10.062;2023-09-12T00:13:40;101156.78;;;23.15;85.67
17785;BME280;9016;53.582;10.062;2023-09-12T00:16:08;101156.09;;;23.13;85.93
17785;BME280;9016;53.582;10.062;2023-09-12T00:18:37;101159.84;;;23.12;86.64
17785;BME280;9016;53.582;10.062;2023-09-12T00:21:06;101147.94;;;23.13;87.35
17785;BME280;9016;53.582;10.062;2023-09-12T00:23:34;101152.19;;;23.16;88.12
17785;BME280;9016;53.582;10.062;2023-09-12T00:26:02;101151.34;;;23.15;88.47
17785;BME280;9016;53.582;10.062;2023-09-12T00:28:30;101150.34;;;23.16;88.54
17785;BME280;9016;53.582;10.062;2023-09-12T00:31:01;101151.31;;;23.07;89.28
17785;BME280;9016;53.582;10.062;2023-09-12T00:33:29;101150.47;;;23.07;88.88
17785;BME280;9016;53.582;10.062;2023-09-12T00:35:58;101152.31;;;22.98;89.40
17785;BME280;9016;53.582;10.062;2023-09-12T00:38:26;101149.19;;;22.93;90.60
17785;BME280;9016;53.582;10.062;2023-09-12T00:40:54;101137.31;;;22.94;90.16
17785;BME280;9016;53.582;10.062;2023-09-12T00:43:22;101130.66;;;22.89;90.44
17785;BME280;9016;53.582;10.062;2023-09-12T00:45:50;101131.13;;;22.84;90.81
17785;BME280;9016;53.582;10.062;2023-09-12T00:48:20;101127.91;;;22.81;91.01
17785;BME280;9016;53.582;10.062;2023-09-12T00:50:51;101125.00;;;22.82;90.58
17785;BME280;9016;53.582;10.062;2023-09-12T00:53:20;101124.97;;;22.74;90.49
17785;BME280;9016;53.582;10.062;2023-09-12T00:55:51;101130.34;;;22.66;90.81
17785;BME280;9016;53.582;10.062;2023-09-12T00:58:23;101133.53;;;22.61;91.69
17785;BME280;9016;53.582;10.062;2023-09-12T01:00:51;101128.97;;;22.62;91.27
17785;BME280;9016;53.582;10.062;2023-09-12T01:03:21;101120.97;;;22.60;90.98
17785;BME280;9016;53.582;10.062;2023-09-12T01:05:49;101123.34;;;22.55;91.23
17785;BME280;9016;53.582;10.062;2023-09-12T01:08:18;101117.34;;;22.52;91.96
17785;BME280;9016;53.582;10.062;2023-09-12T01:10:47;101118.50;;;22.49;92.02
17785;BME280;9016;53.582;10.062;2023-09-12T01:13:17;101112.47;;;22.55;91.80
17785;BME280;9016;53.582;10.062;2023-09-12T01:15:45;101110.28;;;22.59;91.12
17785;BME280;9016;53.582;10.062;2023-09-12T01:18:13;101110.44;;;22.57;90.99
17785;BME280;9016;53.582;10.062;2023-09-12T01:20:52;101094.97;;;22.58;91.43
17785;BME280;9016;53.582;10.062;2023-09-12T01:23:41;101102.91;;;22.51;91.19
17785;BME280;9016;53.582;10.062;2023-09-12T01:26:24;101089.31;;;22.51;91.17
17785;BME280;9016;53.582;10.062;2023-09-12T01:28:57;101082.72;;;22.54;91.49
17785;BME280;9016;53.582;10.062;2023-09-12T01:31:26;101074.72;;;22.52;91.40
17785;BME280;9016;53.582;10.062;2023-09-12T01:33:55;101081.16;;;22.51;91.52
17785;BME280;9016;53.582;10.062;2023-09-12T01:36:23;101068.44;;;22.52;91.37
17785;BME280;9016;53.582;10.062;2023-09-12T01:38:51;101071.00;;;22.53;91.03
17785;BME280;9016;53.582;10.062;2023-09-12T01:41:19;101070.13;;;22.53;91.17
17785;BME280;9016;53.582;10.062;2023-09-12T01:43:48;101058.38;;;22.44;91.92
17785;BME280;9016;53.582;10.062;2023-09-12T01:46:20;101048.53;;;22.43;91.93
17785;BME280;9016;53.582;10.062;2023-09-12T01:48:50;101055.34;;;22.47;92.16
17785;BME280;9016;53.582;10.062;2023-09-12T01:51:20;101050.81;;;22.56;91.86
17785;BME280;9016;53.582;10.062;2023-09-12T01:53:49;101038.41;;;22.53;91.76
17785;BME280;9016;53.582;10.062;2023-09-12T01:56:19;101033.88;;;22.62;90.87
17785;BME280;9016;53.582;10.062;2023-09-12T01:58:48;101031.50;;;22.59;91.58
17785;BME280;9016;53.582;10.062;2023-09-12T02:01:15;101037.13;;;22.66;91.09
17785;BME280;9016;53.582;10.062;2023-09-12T02:03:45;101043.41;;;22.66;90.74
17785;BME280;9016;53.582;10.062;2023-09-12T02:06:13;101067.69;;;22.68;90.50
17785;BME280;9016;53.582;10.062;2023-09-12T02:08:41;101076.53;;;22.70;90.79
17785;BME280;9016;53.582;10.062;2023-09-12T02:11:10;101089.50;;;22.76;90.44
17785;BME280;9016;53.582;10.062;2023-09-12T02:13:38;101109.50;;;22.75;90.43
17785;BME280;9016;53.582;10.062;2023-09-12T02:16:06;101101.69;;;22.72;90.70
17785;BME280;9016;53.582;10.062;2023-09-12T02:18:34;101112.66;;;22.62;91.15
17785;BME280;9016;53.582;10.062;2023-09-12T02:21:04;101112.13;;;22.58;92.01
17785;BME280;9016;53.582;10.062;2023-09-12T02:23:32;101119.03;;;22.53;92.10
17785;BME280;9016;53.582;10.062;2023-09-12T02:26:00;101128.28;;;22.60;92.16
17785;BME280;9016;53.582;10.062;2023-09-12T02:28:28;101109.19;;;22.52;92.27
17785;BME280;9016;53.582;10.062;2023-09-12T02:30:56;101123.47;;;22.54;92.00
17785;BME280;9016;53.582;10.062;2023-09-12T02:33:24;101127.81;;;22.47;92.61
17785;BME280;9016;53.582;10.062;2023-09-12T02:35:53;101133.66;;;22.52;92.65
17785;BME280;9016;53.582;10.062;2023-09-12T02:38:22;101130.06;;;22.51;92.37
17785;BME280;9016;53.582;10.062;2023-09-12T02:40:50;101126.31;;;22.52;92.29
17785;BME280;9016;53.582;10.062;2023-09-12T02:43:18;101132.63;;;22.53;92.41
17785;BME280;9016;53.582;10.062;2023-09-12T02:45:46;101126.88;;;22.56;92.26
17785;BME280;9016;53.582;10.062;2023-09-12T02:48:13;101131.63;;;22.54;92.29
17785;BME280;9016;53.582;10.062;2023-09-12T02:50:42;101135.59;;;22.59;91.89
17785;BME280;9016;53.582;10.062;2023-09-12T02:53:10;101131.84;;;22.60;91.58
17785;BME280;9016;53.582;10.062;2023-09-12T02:55:41;101151.91;;;22.59;91.39
17785;BME280;9016;53.582;10.062;2023-09-12T02:58:10;101160.19;;;22.58;91.87
17785;BME280;9016;53.582;10.062;2023-09-12T03:00:38;101159.03;;;22.60;91.64
17785;BME280;9016;53.582;10.062;2023-09-12T03:03:07;101153.25;;;22.63;91.42
17785;BME280;9016;53.582;10.062;2023-09-12T03:05:38;101157.00;;;22.63;91.05
17785;BME280;9016;53.582;10.062;2023-09-12T03:08:06;101148.84;;;22.63;91.56
17785;BME280;9016;53.582;10.062;2023-09-12T03:10:34;101151.41;;;22.64;91.47
17785;BME280;9016;53.582;10.062;2023-09-12T03:13:03;101150.72;;;22.62;92.01
17785;BME280;9016;53.582;10.062;2023-09-12T03:15:35;101137.97;;;22.63;92.25
17785;BME280;9016;53.582;10.062;2023-09-12T03:18:04;101139.38;;;22.67;91.81
17785;BME280;9016;53.582;10.062;2023-09-12T03:20:33;101132.72;;;22.61;92.02
17785;BME280;9016;53.582;10.062;2023-09-12T03:23:05;101160.03;;;22.59;92.83
17785;BME280;9016;53.582;10.062;2023-09-12T03:25:35;101162.75;;;22.59;93.19
17785;BME280;9016;53.582;10.062;2023-09-12T03:28:06;101165.16;;;22.63;93.11
17785;BME280;9016;53.582;10.062;2023-09-12T03:30:36;101162.75;;;22.59;93.20
17785;BME280;9016;53.582;10.062;2023-09-12T03:33:05;101147.13;;;22.61;94.03
17785;BME280;9016;53.582;10.062;2023-09-12T03:35:33;101156.13;;;22.62;93.26
17785;BME280;9016;53.582;10.062;2023-09-12T03:38:02;101155.97;;;22.63;93.65
17785;BME280;9016;53.582;10.062;2023-09-12T03:40:30;101155.44;;;22.60;94.15
17785;BME280;9016;53.582;10.062;2023-09-12T03:42:58;101156.13;;;22.62;94.13
17785;BME280;9016;53.582;10.062;2023-09-12T03:45:27;101151.22;;;22.66;94.42
17785;BME280;9016;53.582;10.062;2023-09-12T03:47:55;101154.34;;;22.71;94.14
17785;BME280;9016;53.582;10.062;2023-09-12T03:50:23;101160.09;;;22.68;94.28
17785;BME280;9016;53.582;10.062;2023-09-12T03:52:51;101157.69;;;22.65;94.98
17785;BME280;9016;53.582;10.062;2023-09-12T03:55:19;101156.84;;;22.64;94.74
17785;BME280;9016;53.582;10.062;2023-09-12T03:57:47;101159.72;;;22.63;94.40
17785;BME280;9016;53.582;10.062;2023-09-12T04:00:15;101150.34;;;22.57;95.65
17785;BME280;9016;53.582;10.062;2023-09-12T04:02:45;101149.84;;;22.61;96.13
17785;BME280;9016;53.582;10.062;2023-09-12T04:05:13;101139.16;;;22.60;95.88
17785;BME280;9016;53.582;10.062;2023-09-12T04:07:41;101136.91;;;22.55;96.16
17785;BME280;9016;53.582;10.062;2023-09-12T04:10:09;101149.94;;;22.52;97.19
17785;BME280;9016;53.582;10.062;2023-09-12T04:12:37;101149.25;;;22.50;97.86
17785;BME280;9016;53.582;10.062;2023-09-12T04:15:06;101127.19;;;22.53;97.61
17785;BME280;9016;53.582;10.062;2023-09-12T04:17:34;101114.75;;;22.50;98.55
17785;BME280;9016;53.582;10.062;2023-09-12T04:20:05;101104.59;;;22.52;99.51
17785;BME280;9016;53.582;10.062;2023-09-12T04:22:33;101107.47;;;22.51;100.00
17785;BME280;9016;53.582;10.062;2023-09-12T04:25:00;101103.59;;;22.53;99.47
17785;BME280;9016;53.582;10.062;2023-09-12T04:27:29;101081.50;;;22.48;98.11
17785;BME280;9016;53.582;10.062;2023-09-12T04:29:57;101096.56;;;22.43;98.85
17785;BME280;9016;53.582;10.062;2023-09-12T04:32:25;101098.28;;;22.44;99.86
17785;BME280;9016;53.582;10.062;2023-09-12T04:34:53;101099.81;;;22.46;100.00
17785;BME280;9016;53.582;10.062;2023-09-12T04:37:22;101105.63;;;22.51;100.00
17785;BME280;9016;53.582;10.062;2023-09-12T04:39:50;101096.44;;;22.52;99.83
17785;BME280;9016;53.582;10.062;2023-09-12T04:42:18;101107.63;;;22.49;98.86
17785;BME280;9016;53.582;10.062;2023-09-12T04:44:47;101098.63;;;22.49;99.38
17785;BME280;9016;53.582;10.062;2023-09-12T04:47:15;101086.38;;;22.45;99.95
17785;BME280;9016;53.582;10.062;2023-09-12T04:49:44;101085.06;;;22.49;100.00
17785;BME280;9016;53.582;10.062;2023-09-12T04:52:12;101087.06;;;22.47;100.00
17785;BME280;9016;53.582;10.062;2023-09-12T04:54:41;101099.59;;;22.40;100.00
17785;BME280;9016;53.582;10.062;2023-09-12T04:57:09;101093.47;;;22.38;100.00
17785;BME280;9016;53.582;10.062;2023-09-12T04:59:37;101096.56;;;22.43;100.00
17785;BME280;9016;53.582;10.062;2023-09-12T05:02:05;101102.66;;;22.45;100.00
17785;BME280;9016;53.582;10.062;2023-09-12T05:04:33;101098.44;;;22.42;99.16
17785;BME280;9016;53.582;10.062;2023-09-12T05:07:01;101096.72;;;22.41;99.38
17785;BME280;9016;53.582;10.062;2023-09-12T05:09:29;101104.84;;;22.41;99.15
17785;BME280;9016;53.582;10.062;2023-09-12T05:11:58;101118.31;;;22.43;100.00
17785;BME280;9016;53.582;10.062;2023-09-12T05:14:26;101125.22;;;22.37;100.00
17785;BME280;9016;53.582;10.062;2023-09-12T05:16:54;101138.84;;;22.45;100.00
17785;BME280;9016;53.582;10.062;2023-09-12T05:19:23;101129.00;;;22.44;99.07
17785;BME280;9016;53.582;10.062;2023-09-12T05:21:52;101141.88;;;22.42;99.36
17785;BME280;9016;53.582;10.062;2023-09-12T05:24:20;101154.94;;;22.39;99.17
17785;BME280;9016;53.582;10.062;2023-09-12T05:26:48;101147.88;;;22.28;99.61
17785;BME280;9016;53.582;10.062;2023-09-12T05:29:17;101154.16;;;22.29;100.00
17785;BME280;9016;53.582;10.062;2023-09-12T05:31:45;101149.75;;;22.28;100.00
17785;BME280;9016;53.582;10.062;2023-09-12T05:34:13;101161.31;;;22.30;100.00
17785;BME280;9016;53.582;10.062;2023-09-12T05:36:41;101168.59;;;22.29;100.00
17785;BME280;9016;53.582;10.062;2023-09-12T05:39:09;101167.56;;;22.30;100.00
17785;BME280;9016;53.582;10.062;2023-09-12T05:41:37;101166.41;;;22.33;100.00
17785;BME280;9016;53.582;10.062;2023-09-12T05:44:05;101165.47;;;22.42;100.00
17785;BME280;9016;53.582;10.062;2023-09-12T05:46:34;101156.84;;;22.46;100.00
17785;BME280;9016;53.582;10.062;2023-09-12T05:49:03;101149.72;;;22.45;100.00
17785;BME280;9016;53.582;10.062;2023-09-12T05:51:31;101151.09;;;22.49;100.00
17785;BME280;9016;53.582;10.062;2023-09-12T05:53:59;101155.50;;;22.50;100.00
17785;BME280;9016;53.582;10.062;2023-09-12T05:56:27;101159.09;;;22.51;100.00
17785;BME280;9016;53.582;10.062;2023-09-12T05:58:55;101168.41;;;22.48;100.00
17785;BME280;9016;53.582;10.062;2023-09-12T06:01:23;101165.72;;;22.48;100.00
17785;BME280;9016;53.582;10.062;2023-09-12T06:03:53;101125.88;;;22.57;100.00
17785;BME280;9016;53.582;10.062;2023-09-12T06:06:21;101147.00;;;22.45;100.00
17785;BME280;9016;53.582;10.062;2023-09-12T06:08:49;101159.25;;;22.49;100.00
17785;BME280;9016;53.582;10.062;2023-09-12T06:11:19;101145.19;;;22.54;100.00
17785;BME280;9016;53.582;10.062;2023-09-12T06:13:47;101137.28;;;22.60;100.00
17785;BME280;9016;53.582;10.062;2023-09-12T06:16:15;101126.75;;;22.57;100.00
17785;BME280;9016;53.582;10.062;2023-09-12T06:18:43;101122.69;;;22.61;100.00
17785;BME280;9016;53.582;10.062;2023-09-12T06:21:12;101132.53;;;22.63;100.00
17785;BME280;9016;53.582;10.062;2023-09-12T06:23:40;101143.75;;;22.59;100.00
17785;BME280;9016;53.582;10.062;2023-09-12T06:26:08;101148.06;;;22.70;100.00
17785;BME280;9016;53.582;10.062;2023-09-12T06:28:36;101147.41;;;22.76;100.00
17785;BME280;9016;53.582;10.062;2023-09-12T06:31:07;101142.66;;;22.78;100.00
17785;BME280;9016;53.582;10.062;2023-09-12T06:33:37;101153.25;;;22.89;100.00
17785;BME280;9016;53.582;10.062;2023-09-12T06:36:05;101152.59;;;22.95;100.00
17785;BME280;9016;53.582;10.062;2023-09-12T06:38:35;101160.47;;;22.98;98.87
17785;BME280;9016;53.582;10.062;2023-09-12T06:41:03;101165.72;;;23.00;97.42
17785;BME280;9016;53.582;10.062;2023-09-12T06:43:31;101164.69;;;23.01;97.72
17785;BME280;9016;53.582;10.062;2023-09-12T06:45:59;101172.00;;;23.00;97.60
17785;BME280;9016;53.582;10.062;2023-09-12T06:48:27;101176.75;;;22.98;97.08
17785;BME280;9016;53.582;10.062;2023-09-12T06:50:55;101182.88;;;23.00;97.23
17785;BME280;9016;53.582;10.062;2023-09-12T06:53:22;101185.44;;;23.02;96.80
17785;BME280;9016;53.582;10.062;2023-09-12T06:55:52;101186.50;;;23.09;96.52
17785;BME280;9016;53.582;10.062;2023-09-12T06:58:20;101188.19;;;23.10;95.59
17785;BME280;9016;53.582;10.062;2023-09-12T07:00:48;101191.78;;;23.10;95.94
17785;BME280;9016;53.582;10.062;2023-09-12T07:03:16;101194.81;;;23.07;95.70
17785;BME280;9016;53.582;10.062;2023-09-12T07:05:44;101190.91;;;23.10;96.72
17785;BME280;9016;53.582;10.062;2023-09-12T07:08:12;101190.44;;;23.14;95.96
17785;BME280;9016;53.582;10.062;2023-09-12T07:10:43;101184.66;;;23.17;95.03
17785;BME280;9016;53.582;10.062;2023-09-12T07:13:13;101182.16;;;23.24;95.35
17785;BME280;9016;53.582;10.062;2023-09-12T07:15:41;101179.78;;;23.29;95.61
17785;BME280;9016;53.582;10.062;2023-09-12T07:18:09;101184.25;;;23.30;94.34
17785;BME280;9016;53.582;10.062;2023-09-12T07:20:37;101181.03;;;23.34;94.11
17785;BME280;9016;53.582;10.062;2023-09-12T07:23:05;101188.34;;;23.34;93.68
17785;BME280;9016;53.582;10.062;2023-09-12T07:25:37;101180.19;;;23.34;94.27
17785;BME280;9016;53.582;10.062;2023-09-12T07:30:35;101189.03;;;23.36;94.73
17785;BME280;9016;53.582;10.062;2023-09-12T07:33:04;101187.88;;;23.38;94.93
17785;BME280;9016;53.582;10.062;2023-09-12T07:35:32;101184.75;;;23.33;96.08
17785;BME280;9016;53.582;10.062;2023-09-12T07:38:00;101183.13;;;23.40;96.90
17785;BME280;9016;53.582;10.062;2023-09-12T07:40:28;101182.81;;;23.51;96.56
17785;BME280;9016;53.582;10.062;2023-09-12T07:42:56;101168.69;;;23.56;96.38
17785;BME280;9016;53.582;10.062;2023-09-12T07:45:24;101166.66;;;23.58;95.48
17785;BME280;9016;53.582;10.062;2023-09-12T07:47:53;101162.41;;;23.55;94.88
17785;BME280;9016;53.582;10.062;2023-09-12T07:50:21;101159.88;;;23.62;93.77
17785;BME280;9016;53.582;10.062;2023-09-12T07:52:49;101161.56;;;23.63;91.73
17785;BME280;9016;53.582;10.062;2023-09-12T07:55:17;101165.31;;;23.62;91.85
17785;BME280;9016;53.582;10.062;2023-09-12T07:57:45;101174.00;;;23.66;93.47
17785;BME280;9016;53.582;10.062;2023-09-12T08:00:14;101182.34;;;23.72;92.33
17785;BME280;9016;53.582;10.062;2023-09-12T08:02:43;101186.78;;;23.73;92.44
17785;BME280;9016;53.582;10.062;2023-09-12T08:05:13;101176.03;;;23.64;92.72
17785;BME280;9016;53.582;10.062;2023-09-12T08:07:41;101185.53;;;23.59;93.52
17785;BME280;9016;53.582;10.062;2023-09-12T08:10:09;101189.81;;;23.62;94.43
17785;BME280;9016;53.582;10.062;2023-09-12T08:12:37;101189.00;;;23.70;94.05
17785;BME280;9016;53.582;10.062;2023-09-12T08:15:08;101207.00;;;23.71;92.99
17785;BME280;9016;53.582;10.062;2023-09-12T08:17:36;101202.09;;;23.66;92.74
17785;BME280;9016;53.582;10.062;2023-09-12T08:20:06;101206.19;;;23.70;92.44
17785;BME280;9016;53.582;10.062;2023-09-12T08:22:37;101215.59;;;23.92;91.46
17785;BME280;9016;53.582;10.062;2023-09-12T08:25:06;101220.75;;;24.03;90.91
17785;BME280;9016;53.582;10.062;2023-09-12T08:27:34;101224.00;;;24.06;90.42
17785;BME280;9016;53.582;10.062;2023-09-12T08:30:03;101231.50;;;24.20;90.39
17785;BME280;9016;53.582;10.062;2023-09-12T08:32:31;101218.41;;;24.32;88.72
17785;BME280;9016;53.582;10.062;2023-09-12T08:34:59;101222.66;;;24.42;88.65
17785;BME280;9016;53.582;10.062;2023-09-12T08:37:27;101211.63;;;24.44;87.02
17785;BME280;9016;53.582;10.062;2023-09-12T08:39:56;101205.81;;;24.55;87.24
17785;BME280;9016;53.582;10.062;2023-09-12T08:42:26;101205.97;;;24.78;86.92
17785;BME280;9016;53.582;10.062;2023-09-12T08:44:55;101215.53;;;24.74;85.12
17785;BME280;9016;53.582;10.062;2023-09-12T08:47:25;101227.25;;;24.34;85.52
17785;BME280;9016;53.582;10.062;2023-09-12T08:49:54;101228.13;;;24.34;86.38
17785;BME280;9016;53.582;10.062;2023-09-12T08:52:22;101229.97;;;24.34;86.96
17785;BME280;9016;53.582;10.062;2023-09-12T08:54:50;101224.34;;;24.51;87.72
17785;BME280;9016;53.582;10.062;2023-09-12T08:57:21;101232.72;;;24.34;87.63
17785;BME280;9016;53.582;10.062;2023-09-12T08:59:50;101240.38;;;24.30;87.48
17785;BME280;9016;53.582;10.062;2023-09-12T09:02:19;101237.31;;;24.25;88.54
17785;BME280;9016;53.582;10.062;2023-09-12T09:04:47;101228.63;;;24.30;88.67
17785;BME280;9016;53.582;10.062;2023-09-12T09:07:19;101235.41;;;24.26;89.26
17785;BME280;9016;53.582;10.062;2023-09-12T09:09:48;101231.84;;;24.25;90.24
17785;BME280;9016;53.582;10.062;2023-09-12T09:12:19;101235.59;;;24.32;88.48
17785;BME280;9016;53.582;10.062;2023-09-12T09:14:47;101233.38;;;24.28;88.45
17785;BME280;9016;53.582;10.062;2023-09-12T09:17:15;101237.47;;;24.32;87.95
17785;BME280;9016;53.582;10.062;2023-09-12T09:20:01;101240.72;;;24.51;88.14
17785;BME280;9016;53.582;10.062;2023-09-12T09:22:30;101231.34;;;24.70;87.55
17785;BME280;9016;53.582;10.062;2023-09-12T09:25:10;101237.34;;;24.82;85.08
17785;BME280;9016;53.582;10.062;2023-09-12T09:27:40;101231.88;;;24.74;86.49
17785;BME280;9016;53.582;10.062;2023-09-12T09:30:09;101249.75;;;24.60;86.65
17785;BME280;9016;53.582;10.062;2023-09-12T09:32:37;101246.00;;;24.53;85.98
17785;BME280;9016;53.582;10.062;2023-09-12T09:35:06;101238.66;;;24.53;85.86
17785;BME280;9016;53.582;10.062;2023-09-12T09:37:34;101238.84;;;24.52;85.37
17785;BME280;9016;53.582;10.062;2023-09-12T09:40:05;101243.13;;;24.79;84.05
17785;BME280;9016;53.582;10.062;2023-09-12T09:42:33;101237.28;;;25.06;84.25
17785;BME280;9016;53.582;10.062;2023-09-12T09:45:03;101234.53;;;25.22;82.46
17785;BME280;9016;53.582;10.062;2023-09-12T09:47:32;101240.72;;;25.63;80.56
17785;BME280;9016;53.582;10.062;2023-09-12T09:50:00;101231.91;;;25.83;79.84
17785;BME280;9016;53.582;10.062;2023-09-12T09:52:28;101231.69;;;25.93;79.25
17785;BME280;9016;53.582;10.062;2023-09-12T09:54:56;101239.50;;;26.04;80.03
17785;BME280;9016;53.582;10.062;2023-09-12T09:57:25;101244.22;;;25.79;77.00
17785;BME280;9016;53.582;10.062;2023-09-12T09:59:54;101247.16;;;25.70;78.27
17785;BME280;9016;53.582;10.062;2023-09-12T10:02:25;101257.47;;;25.52;80.19
17785;BME280;9016;53.582;10.062;2023-09-12T10:04:55;101260.78;;;25.39;80.09
17785;BME280;9016;53.582;10.062;2023-09-12T10:07:27;101267.75;;;25.33;80.67
17785;BME280;9016;53.582;10.062;2023-09-12T10:09:58;101261.78;;;25.22;80.09
17785;BME280;9016;53.582;10.062;2023-09-12T10:12:30;101260.13;;;25.13;80.66
17785;BME280;9016;53.582;10.062;2023-09-12T10:15:00;101265.25;;;25.08;81.19
17785;BME280;9016;53.582;10.062;2023-09-12T10:17:36;101262.19;;;25.03;82.69
17785;BME280;9016;53.582;10.062;2023-09-12T10:20:08;101263.34;;;25.16;82.63
17785;BME280;9016;53.582;10.062;2023-09-12T10:22:43;101255.97;;;25.33;82.67
17785;BME280;9016;53.582;10.062;2023-09-12T10:25:15;101257.53;;;25.43;81.49
17785;BME280;9016;53.582;10.062;2023-09-12T10:27:43;101262.47;;;25.40;80.98
17785;BME280;9016;53.582;10.062;2023-09-12T10:30:12;101262.13;;;25.43;80.83
17785;BME280;9016;53.582;10.062;2023-09-12T10:32:41;101258.72;;;25.49;81.18
17785;BME280;9016;53.582;10.062;2023-09-12T10:35:13;101259.41;;;25.43;77.30
17785;BME280;9016;53.582;10.062;2023-09-12T10:37:41;101251.25;;;25.27;77.69
17785;BME280;9016;53.582;10.062;2023-09-12T10:40:12;101247.84;;;25.25;76.48
17785;BME280;9016;53.582;10.062;2023-09-12T10:42:42;101249.88;;;25.23;77.42
17785;BME280;9016;53.582;10.062;2023-09-12T10:45:12;101255.34;;;25.23;76.93
17785;BME280;9016;53.582;10.062;2023-09-12T10:47:41;101258.25;;;25.21;77.35
17785;BME280;9016;53.582;10.062;2023-09-12T10:50:10;101248.69;;;25.17;77.90
17785;BME280;9016;53.582;10.062;2023-09-12T10:52:38;101250.44;;;25.10;77.46
17785;BME280;9016;53.582;10.062;2023-09-12T10:55:08;101251.63;;;24.76;77.90
17785;BME280;9016;53.582;10.062;2023-09-12T10:58:01;101249.59;;;24.78;78.83
17785;BME280;9016;53.582;10.062;2023-09-12T11:00:30;101259.69;;;24.77;78.55
17785;BME280;9016;53.582;10.062;2023-09-12T11:06:20;101256.06;;;24.85;77.99
17785;BME280;9016;53.582;10.062;2023-09-12T11:09:17;101256.41;;;24.74;77.84
17785;BME280;9016;53.582;10.062;2023-09-12T11:11:47;101252.31;;;24.62;78.44
17785;BME280;9016;53.582;10.062;2023-09-12T11:14:16;101255.88;;;24.54;79.16
17785;BME280;9016;53.582;10.062;2023-09-12T11:17:20;101256.56;;;24.56;77.85
17785;BME280;9016;53.582;10.062;2023-09-12T11:19:50;101256.56;;;24.64;78.25
17785;BME280;9016;53.582;10.062;2023-09-12T11:22:24;101259.31;;;24.64;78.13
17785;BME280;9016;53.582;10.062;2023-09-12T11:24:54;101250.78;;;24.67;77.41
17785;BME280;9016;53.582;10.062;2023-09-12T11:27:25;101251.13;;;24.64;78.47
17785;BME280;9016;53.582;10.062;2023-09-12T11:30:03;101255.53;;;24.57;78.67
17785;BME280;9016;53.582;10.062;2023-09-12T11:32:35;101247.53;;;24.55;79.19
17785;BME280;9016;53.582;10.062;2023-09-12T11:35:10;101255.38;;;24.59;79.21
17785;BME280;9016;53.582;10.062;2023-09-12T11:37:38;101256.75;;;24.54;79.35
17785;BME280;9016;53.582;10.062;2023-09-12T11:40:24;101254.84;;;24.47;78.41
17785;BME280;9016;53.582;10.062;2023-09-12T11:42:53;101258.44;;;24.47;79.53
17785;BME280;9016;53.582;10.062;2023-09-12T11:45:21;101259.63;;;24.45;79.42
17785;BME280;9016;53.582;10.062;2023-09-12T11:47:50;101254.66;;;24.40;78.80
17785;BME280;9016;53.582;10.062;2023-09-12T11:50:29;101250.44;;;24.38;79.20
17785;BME280;9016;53.582;10.062;2023-09-12T11:52:59;101253.31;;;24.36;79.60
17785;BME280;9016;53.582;10.062;2023-09-12T11:55:30;101259.63;;;24.45;78.82
17785;BME280;9016;53.582;10.062;2023-09-12T11:57:58;101254.34;;;24.43;78.49
17785;BME280;9016;53.582;10.062;2023-09-12T12:00:27;101252.63;;;24.42;78.95
17785;BME280;9016;53.582;10.062;2023-09-12T12:02:55;101254.16;;;24.45;79.90
17785;BME280;9016;53.582;10.062;2023-09-12T12:05:23;101252.47;;;24.52;79.89
17785;BME280;9016;53.582;10.062;2023-09-12T12:07:54;101245.81;;;24.46;80.52
17785;BME280;9016;53.582;10.062;2023-09-12T12:10:42;101252.78;;;24.25;82.71
17785;BME280;9016;53.582;10.062;2023-09-12T12:13:11;101245.13;;;24.28;83.30
17785;BME280;9016;53.582;10.062;2023-09-12T12:15:39;101245.81;;;24.30;83.60
17785;BME280;9016;53.582;10.062;2023-09-12T12:18:07;101244.78;;;24.31;82.20
17785;BME280;9016;53.582;10.062;2023-09-12T12:20:35;101241.03;;;24.40;82.56
17785;BME280;9016;53.582;10.062;2023-09-12T12:23:05;101238.66;;;24.37;83.19
17785;BME280;9016;53.582;10.062;2023-09-12T12:25:33;101235.28;;;24.43;83.88
17785;BME280;9016;53.582;10.062;2023-09-12T12:28:02;101235.28;;;24.43;84.69
17785;BME280;9016;53.582;10.062;2023-09-12T12:30:31;101222.66;;;24.26;85.54
17785;BME280;9016;53.582;10.062;2023-09-12T12:33:01;101216.53;;;24.32;85.81
17785;BME280;9016;53.582;10.062;2023-09-12T12:35:49;101202.06;;;24.40;85.23
17785;BME280;9016;53.582;10.062;2023-09-12T12:38:22;101198.84;;;24.36;85.43
17785;BME280;9016;53.582;10.062;2023-09-12T12:40:50;101191.50;;;24.45;85.23
17785;BME280;9016;53.582;10.062;2023-09-12T12:43:20;101190.16;;;24.49;85.29
17785;BME280;9016;53.582;10.062;2023-09-12T12:45:53;101176.66;;;24.55;84.52
17785;BME280;9016;53.582;10.062;2023-09-12T12:48:31;101173.25;;;24.53;84.81
17785;BME280;9016;53.582;10.062;2023-09-12T12:51:12;101160.16;;;24.49;84.97
17785;BME280;9016;53.582;10.062;2023-09-12T12:53:46;101163.56;;;24.59;83.40
17785;BME280;9016;53.582;10.062;2023-09-12T12:56:18;101163.22;;;24.78;83.03
17785;BME280;9016;53.582;10.062;2023-09-12T12:58:47;101162.03;;;24.81;82.21
17785;BME280;9016;53.582;10.062;2023-09-12T13:01:16;101174.13;;;24.78;81.58
17785;BME280;9016;53.582;10.062;2023-09-12T13:03:44;101171.91;;;24.82;82.41
17785;BME280;9016;53.582;10.062;2023-09-12T13:06:13;101170.53;;;24.94;82.31